Time;durP1;ratioP1;P1;durP2;ratioP2;P2;SDS_P1;SDS_P2;PMS_P1;PMS_P2;Temp;Humidity;BMP_temperature;BMP_pressure;BME280_temperature;BME280_humidity;BME280_pressure;Samples;Min_cycle;Max_cycle;Signal;HPM_P1;HPM_P2
2023/01/12 00:01:32;;;;;;;;;;;;;;;3.65;70.27;94793.06;4172997;28;20379;-68
2023/01/12 00:03:34;;;;;;;;;;;;;;;3.58;70.84;94796.22;4174230;28;19998;-72
2023/01/12 00:05:36;;;;;;;;;;;;;;;3.60;71.39;94794.34;4149543;28;19980;-71
2023/01/12 00:07:38;;;;;;;;;;;;;;;3.66;70.40;94789.53;4170448;28;19920;-73
2023/01/12 00:09:40;;;;;;;;;;;;;;;3.71;70.70;94785.78;4174310;28;19925;-72
2023/01/12 00:11:41;;;;;;;;;;;;;;;3.74;70.70;94791.53;4174724;28;20303;-71
2023/01/12 00:13:43;;;;;;;;;;;;;;;3.78;70.20;94799.91;4158767;28;20364;-73
2023/01/12 00:18:04;;;;;;;;;;;;;;;3.67;70.46;94798.94;4175786;28;20031;-73
2023/01/12 00:20:06;;;;;;;;;;;;;;;3.63;70.61;94805.28;4157930;28;19928;-73
2023/01/12 00:22:10;;;;;;;;;;;;;;;3.63;70.85;94797.53;4171566;28;19921;-71
2023/01/12 00:24:13;;;;;;;;;;;;;;;3.67;71.04;94801.53;4169296;28;20279;-74
2023/01/12 00:26:14;;;;;;;;;;;;;;;3.69;70.50;94804.84;4172763;28;20020;-72
2023/01/12 00:28:16;;;;;;;;;;;;;;;3.75;70.63;94800.16;4176115;28;20118;-72
2023/01/12 00:30:17;;;;;;;;;;;;;;;3.83;70.42;94806.41;4171273;28;20296;-71
2023/01/12 00:32:19;;;;;;;;;;;;;;;3.74;70.20;94808.84;4176332;28;20378;-71
2023/01/12 00:34:21;;;;;;;;;;;;;;;3.66;70.63;94809.44;4166169;28;20324;-71
2023/01/12 00:36:23;;;;;;;;;;;;;;;3.53;70.75;94814.72;4158140;28;20005;-71
2023/01/12 00:40:44;;;;;;;;;;;;;;;3.34;71.24;94819.59;4159526;28;19924;-75
2023/01/12 00:45:20;;;;;;;;;;;;;;;3.43;70.47;94811.13;4139472;28;19975;-71
2023/01/12 00:47:21;;;;;;;;;;;;;;;3.47;71.13;94804.78;4177086;28;19924;-73
2023/01/12 00:49:23;;;;;;;;;;;;;;;3.48;70.62;94809.88;4170673;28;20072;-72
2023/01/12 00:51:25;;;;;;;;;;;;;;;3.51;70.91;94808.81;4167776;28;20006;-71
2023/01/12 00:53:26;;;;;;;;;;;;;;;3.61;70.74;94804.56;4166677;28;19928;-69
2023/01/12 00:55:28;;;;;;;;;;;;;;;3.54;70.21;94805.16;4175634;28;19920;-72
2023/01/12 00:57:29;;;;;;;;;;;;;;;3.49;70.41;94808.09;4145896;28;20015;-72
2023/01/12 00:59:33;;;;;;;;;;;;;;;3.49;71.06;94803.75;4172172;28;19921;-72
2023/01/12 01:01:34;;;;;;;;;;;;;;;3.50;71.05;94799.38;4168958;28;19921;-73
2023/01/12 01:03:36;;;;;;;;;;;;;;;3.49;70.70;94805.50;4170128;28;19921;-72
2023/01/12 01:05:37;;;;;;;;;;;;;;;3.42;70.68;94804.28;4173864;28;19979;-72
2023/01/12 01:07:39;;;;;;;;;;;;;;;3.38;71.22;94811.47;4164603;28;20439;-74
2023/01/12 01:09:40;;;;;;;;;;;;;;;3.37;71.33;94815.00;4177920;28;19929;-71
2023/01/12 01:11:42;;;;;;;;;;;;;;;3.44;71.61;94816.22;4170832;28;19925;-72
2023/01/12 01:13:44;;;;;;;;;;;;;;;3.48;71.52;94809.88;4162816;28;19975;-72
2023/01/12 01:15:45;;;;;;;;;;;;;;;3.48;71.32;94806.44;4144636;28;19971;-71
2023/01/12 01:17:47;;;;;;;;;;;;;;;3.45;71.05;94807.50;4149484;28;19936;-72
2023/01/12 01:19:48;;;;;;;;;;;;;;;3.43;70.71;94808.56;4178098;28;19932;-75
2023/01/12 01:21:50;;;;;;;;;;;;;;;3.43;71.12;94808.56;4178332;28;19971;-73
2023/01/12 01:23:51;;;;;;;;;;;;;;;3.33;70.84;94802.38;4170399;28;20168;-72
2023/01/12 01:25:53;;;;;;;;;;;;;;;3.28;71.68;94811.31;4171062;28;19971;-74
2023/01/12 01:27:55;;;;;;;;;;;;;;;3.32;72.09;94817.09;4169419;28;19924;-70
2023/01/12 01:29:56;;;;;;;;;;;;;;;3.18;72.41;94812.91;4176584;28;20035;-72
2023/01/12 01:31:58;;;;;;;;;;;;;;;3.26;72.30;94808.00;4166631;28;20146;-72
2023/01/12 01:34:00;;;;;;;;;;;;;;;3.24;72.08;94815.06;4169829;28;19986;-71
2023/01/12 01:36:02;;;;;;;;;;;;;;;3.30;71.96;94808.63;4171026;28;19924;-71
2023/01/12 01:38:04;;;;;;;;;;;;;;;3.27;71.83;94814.84;4161382;28;20363;-70
2023/01/12 01:40:06;;;;;;;;;;;;;;;3.35;71.80;94816.06;4174001;28;20023;-72
2023/01/12 01:42:26;;;;;;;;;;;;;;;3.33;71.51;94823.09;4178111;28;19921;-73
2023/01/12 01:44:28;;;;;;;;;;;;;;;3.39;71.74;94813.13;4163050;28;19944;-71
2023/01/12 01:46:49;;;;;;;;;;;;;;;3.36;71.32;94817.72;4177841;28;20275;-71
2023/01/12 01:48:51;;;;;;;;;;;;;;;3.40;71.42;94824.28;4159323;28;19992;-72
2023/01/12 01:50:56;;;;;;;;;;;;;;;3.41;71.14;94829.38;4154424;28;19921;-72
2023/01/12 01:52:59;;;;;;;;;;;;;;;3.41;71.10;94821.59;4170418;28;19986;-72
2023/01/12 01:55:02;;;;;;;;;;;;;;;3.42;71.47;94817.25;4159550;28;19921;-72
2023/01/12 01:57:04;;;;;;;;;;;;;;;3.42;71.26;94825.00;4160748;28;19921;-72
2023/01/12 01:59:07;;;;;;;;;;;;;;;3.40;71.10;94830.31;4160453;28;20325;-71
2023/01/12 02:01:09;;;;;;;;;;;;;;;3.41;71.13;94825.97;4159833;28;19976;-71
2023/01/12 02:03:10;;;;;;;;;;;;;;;3.35;71.18;94816.88;4176874;28;19920;-70
2023/01/12 02:05:12;;;;;;;;;;;;;;;3.40;71.18;94821.72;4157546;28;19927;-72
2023/01/12 02:07:14;;;;;;;;;;;;;;;3.26;71.44;94823.53;4157246;28;20348;-72
2023/01/12 02:09:17;;;;;;;;;;;;;;;3.27;71.83;94820.03;4169554;28;19924;-72
2023/01/12 02:16:22;;;;;;;;;;;;;;;3.40;71.82;94821.72;4176122;28;19925;-72
2023/01/12 02:18:29;;;;;;;;;;;;;;;3.51;70.96;94821.75;4177285;28;19924;-71
2023/01/12 02:20:33;;;;;;;;;;;;;;;3.47;70.98;94820.34;4159201;28;19921;-74
2023/01/12 02:22:54;;;;;;;;;;;;;;;3.49;71.32;94827.06;4160783;28;20317;-71
2023/01/12 02:25:14;;;;;;;;;;;;;;;3.37;71.10;94820.19;4135386;28;19980;-72
2023/01/12 02:27:29;;;;;;;;;;;;;;;3.29;71.72;94827.66;4165964;28;20379;-72
2023/01/12 02:30:03;;;;;;;;;;;;;;;3.31;71.56;94817.22;4159274;28;19928;-72
2023/01/12 02:32:20;;;;;;;;;;;;;;;3.28;71.26;94818.25;4128810;28;19921;-72
2023/01/12 02:34:36;;;;;;;;;;;;;;;3.27;71.57;94811.44;4169317;28;19932;-72
2023/01/12 02:37:08;;;;;;;;;;;;;;;3.23;71.56;94816.00;4177039;28;20019;-71
2023/01/12 02:39:23;;;;;;;;;;;;;;;3.07;72.66;94820.63;4160132;28;19920;-72
2023/01/12 02:43:48;;;;;;;;;;;;;;;2.86;72.75;94821.25;4176522;28;19920;-72
2023/01/12 02:45:49;;;;;;;;;;;;;;;2.80;73.62;94826.88;4165056;28;20311;-73
2023/01/12 02:48:04;;;;;;;;;;;;;;;2.79;73.80;94817.44;4159428;28;20456;-73
2023/01/12 02:50:07;;;;;;;;;;;;;;;2.68;74.48;94817.38;4162316;28;20347;-72
2023/01/12 02:52:11;;;;;;;;;;;;;;;2.77;74.30;94821.06;4161953;28;19920;-72
2023/01/12 02:54:13;;;;;;;;;;;;;;;2.82;73.80;94819.81;4149340;28;19965;-73
2023/01/12 02:56:32;;;;;;;;;;;;;;;2.93;73.91;94820.81;4159394;28;20340;-71
2023/01/12 02:58:35;;;;;;;;;;;;;;;3.08;73.54;94817.94;4156953;28;19992;-71
2023/01/12 03:00:37;;;;;;;;;;;;;;;3.11;73.00;94818.66;4165516;28;20055;-72
2023/01/12 03:02:40;;;;;;;;;;;;;;;2.89;73.39;94816.81;4168020;28;19925;-73
2023/01/12 03:04:41;;;;;;;;;;;;;;;2.89;73.63;94814.22;4171141;28;19921;-73
2023/01/12 03:06:44;;;;;;;;;;;;;;;2.92;73.58;94808.81;4165147;28;19936;-71
2023/01/12 03:08:47;;;;;;;;;;;;;;;2.98;73.30;94814.38;4142346;28;19972;-71
2023/01/12 03:10:58;;;;;;;;;;;;;;;3.08;73.31;94817.13;4152588;28;19921;-71
2023/01/12 03:13:00;;;;;;;;;;;;;;;3.11;73.05;94814.31;4163870;28;20426;-72
2023/01/12 03:15:03;;;;;;;;;;;;;;;3.14;73.02;94819.28;4154176;28;19928;-71
2023/01/12 03:17:06;;;;;;;;;;;;;;;3.10;72.86;94817.84;4167134;28;19924;-71
2023/01/12 03:19:12;;;;;;;;;;;;;;;2.98;73.37;94814.38;4176561;28;20394;-72
2023/01/12 03:21:16;;;;;;;;;;;;;;;3.02;73.28;94807.22;4175543;28;19951;-72
2023/01/12 03:23:32;;;;;;;;;;;;;;;3.03;73.33;94816.63;4176286;28;19966;-71
2023/01/12 03:25:33;;;;;;;;;;;;;;;2.98;73.23;94819.53;4167599;28;19928;-72
2023/01/12 03:27:37;;;;;;;;;;;;;;;2.98;73.39;94816.13;4157511;28;19921;-72
2023/01/12 03:29:44;;;;;;;;;;;;;;;3.04;73.36;94815.69;4161256;28;19983;-72
2023/01/12 03:31:45;;;;;;;;;;;;;;;3.06;73.41;94816.41;4160420;28;20022;-71
2023/01/12 03:33:47;;;;;;;;;;;;;;;3.11;73.09;94816.06;4176140;28;19932;-72
2023/01/12 03:35:57;;;;;;;;;;;;;;;3.11;73.16;94811.72;4147191;28;19921;-73
2023/01/12 03:38:01;;;;;;;;;;;;;;;3.12;73.33;94809.94;4157998;28;20339;-72
2023/01/12 03:40:04;;;;;;;;;;;;;;;3.17;73.20;94805.28;4157351;28;19987;-71
2023/01/12 03:42:25;;;;;;;;;;;;;;;3.11;73.17;94813.50;4178640;28;19921;-71
2023/01/12 03:44:29;;;;;;;;;;;;;;;3.09;73.12;94811.00;4158487;28;19921;-73
2023/01/12 03:46:32;;;;;;;;;;;;;;;3.09;73.74;94805.81;4158405;28;20327;-71
2023/01/12 03:48:37;;;;;;;;;;;;;;;3.16;73.77;94799.28;4175988;28;19987;-71
2023/01/12 03:50:41;;;;;;;;;;;;;;;3.02;73.51;94805.44;4157796;28;19921;-72
2023/01/12 03:52:43;;;;;;;;;;;;;;;3.02;73.55;94795.09;4157788;28;20120;-73
2023/01/12 03:54:45;;;;;;;;;;;;;;;3.11;73.93;94798.78;4174772;28;19963;-71
2023/01/12 03:56:46;;;;;;;;;;;;;;;3.18;73.56;94799.97;4158373;28;19924;-73
2023/01/12 03:58:48;;;;;;;;;;;;;;;3.20;73.38;94800.69;4158695;28;20339;-73
2023/01/12 04:00:50;;;;;;;;;;;;;;;3.21;73.20;94798.94;4158293;28;19921;-71
2023/01/12 04:03:00;;;;;;;;;;;;;;;3.12;73.76;94792.69;4175664;28;19981;-72
2023/01/12 04:05:04;;;;;;;;;;;;;;;3.14;73.89;94793.41;4154374;28;19925;-72
2023/01/12 04:07:06;;;;;;;;;;;;;;;3.08;74.06;94793.84;4142687;28;19921;-72
2023/01/12 04:09:08;;;;;;;;;;;;;;;3.07;74.30;94792.97;4159143;28;19972;-71
2023/01/12 04:13:29;;;;;;;;;;;;;;;3.12;73.74;94784.91;4159793;28;19921;-72
2023/01/12 04:15:31;;;;;;;;;;;;;;;3.17;73.94;94789.75;4175217;28;19932;-71
2023/01/12 04:17:32;;;;;;;;;;;;;;;3.19;74.38;94796.47;4175593;28;19920;-73
2023/01/12 04:19:52;;;;;;;;;;;;;;;3.21;74.32;94792.00;4175193;28;20342;-71
2023/01/12 04:24:14;;;;;;;;;;;;;;;3.33;73.23;94797.22;4175322;28;19928;-72
2023/01/12 04:26:16;;;;;;;;;;;;;;;3.37;73.52;94791.69;4168341;28;20143;-73
2023/01/12 04:28:17;;;;;;;;;;;;;;;3.40;72.98;94785.44;4168167;28;19935;-73
2023/01/12 04:30:21;;;;;;;;;;;;;;;3.39;72.90;94789.00;4162994;28;19921;-72
2023/01/12 04:32:23;;;;;;;;;;;;;;;3.42;72.80;94801.69;4175252;28;19971;-71
2023/01/12 04:34:24;;;;;;;;;;;;;;;3.24;72.84;94802.13;4178410;28;20373;-73
2023/01/12 04:36:26;;;;;;;;;;;;;;;3.25;73.22;94803.78;4168528;28;19921;-72
2023/01/12 04:38:27;;;;;;;;;;;;;;;3.24;73.20;94806.47;4163598;28;20160;-71
2023/01/12 04:40:29;;;;;;;;;;;;;;;3.17;72.93;94807.88;4160796;28;19925;-72
2023/01/12 04:44:51;;;;;;;;;;;;;;;3.04;74.07;94807.94;4178473;28;19949;-72
2023/01/12 04:46:52;;;;;;;;;;;;;;;3.13;73.83;94820.19;4162219;28;19921;-72
2023/01/12 04:48:54;;;;;;;;;;;;;;;3.17;73.79;94813.03;4169378;28;20360;-75
2023/01/12 04:50:57;;;;;;;;;;;;;;;3.19;73.94;94809.41;4178224;28;19948;-72
2023/01/12 04:53:00;;;;;;;;;;;;;;;3.18;73.81;94825.03;4158530;28;20027;-72
2023/01/12 04:55:03;;;;;;;;;;;;;;;3.14;74.16;94826.19;4166636;28;19990;-71
2023/01/12 04:57:05;;;;;;;;;;;;;;;3.12;74.09;94818.56;4160803;28;19920;-70
2023/01/12 04:59:09;;;;;;;;;;;;;;;3.18;74.54;94822.44;4178817;28;20268;-72
2023/01/12 05:01:11;;;;;;;;;;;;;;;3.16;74.18;94822.59;4177828;28;19986;-72
2023/01/12 05:03:14;;;;;;;;;;;;;;;3.23;73.91;94817.78;4160976;28;19998;-73
2023/01/12 05:05:15;;;;;;;;;;;;;;;3.25;73.99;94832.25;4174197;28;19971;-75
2023/01/12 05:07:17;;;;;;;;;;;;;;;3.30;73.98;94825.94;4174296;28;19936;-73
2023/01/12 05:11:38;;;;;;;;;;;;;;;3.29;73.35;94830.25;4169371;28;19969;-70
2023/01/12 05:13:40;;;;;;;;;;;;;;;3.25;73.38;94834.84;4144879;28;19921;-73
2023/01/12 05:15:42;;;;;;;;;;;;;;;3.21;73.80;94840.38;4174947;28;19959;-72
2023/01/12 05:17:44;;;;;;;;;;;;;;;3.22;73.90;94834.25;4173990;28;19925;-75
2023/01/12 05:19:47;;;;;;;;;;;;;;;3.31;74.06;94835.34;4168846;28;19937;-71
2023/01/12 05:21:49;;;;;;;;;;;;;;;3.36;73.97;94846.19;4174937;28;19921;-72
2023/01/12 05:23:50;;;;;;;;;;;;;;;3.39;73.70;94845.97;4176124;28;19921;-73
2023/01/12 05:25:52;;;;;;;;;;;;;;;3.40;73.58;94843.28;4160704;28;19921;-74
2023/01/12 05:27:54;;;;;;;;;;;;;;;3.38;73.40;94841.75;4159237;28;20268;-74
2023/01/12 05:29:58;;;;;;;;;;;;;;;3.40;73.51;94850.19;4175273;28;19960;-72
2023/01/12 05:31:59;;;;;;;;;;;;;;;3.43;73.27;94847.41;4178453;28;19930;-71
2023/01/12 05:34:01;;;;;;;;;;;;;;;3.46;73.33;94853.19;4177647;28;20368;-72
2023/01/12 05:36:04;;;;;;;;;;;;;;;3.45;73.15;94855.88;4178011;28;19936;-74
2023/01/12 05:38:06;;;;;;;;;;;;;;;3.40;73.83;94856.22;4172499;28;19927;-73
2023/01/12 05:40:09;;;;;;;;;;;;;;;3.38;73.62;94862.44;4176912;28;20418;-74
2023/01/12 05:44:30;;;;;;;;;;;;;;;3.43;73.49;94868.13;4174697;28;19927;-74
2023/01/12 05:46:32;;;;;;;;;;;;;;;3.44;73.65;94870.59;4159608;28;19921;-72
2023/01/12 05:48:34;;;;;;;;;;;;;;;3.50;74.03;94877.09;4152752;28;19921;-74
2023/01/12 05:50:36;;;;;;;;;;;;;;;3.51;73.88;94883.94;4173057;28;20003;-73
2023/01/12 05:52:37;;;;;;;;;;;;;;;3.51;72.99;94881.34;4172742;28;19921;-72
2023/01/12 05:54:39;;;;;;;;;;;;;;;3.55;73.36;94879.34;4172762;28;19986;-73
2023/01/12 05:56:41;;;;;;;;;;;;;;;3.51;73.37;94877.91;4177513;28;19927;-75
2023/01/12 05:58:47;;;;;;;;;;;;;;;3.53;73.13;94876.88;4147707;28;19968;-73
2023/01/12 06:00:48;;;;;;;;;;;;;;;3.57;73.51;94867.09;4156087;28;19967;-72
2023/01/12 06:02:50;;;;;;;;;;;;;;;3.65;73.35;94873.38;4177786;28;19956;-73
2023/01/12 06:04:52;;;;;;;;;;;;;;;3.59;72.56;94875.59;4172908;28;19927;-73
2023/01/12 06:06:53;;;;;;;;;;;;;;;3.50;73.21;94884.84;4173553;28;19920;-72
2023/01/12 06:08:55;;;;;;;;;;;;;;;3.40;73.66;94886.44;4173242;28;19928;-71
2023/01/12 06:11:01;;;;;;;;;;;;;;;3.44;73.23;94883.56;4157710;28;19935;-74
2023/01/12 06:15:23;;;;;;;;;;;;;;;3.22;74.48;94878.25;4177500;28;20230;-72
2023/01/12 06:17:24;;;;;;;;;;;;;;;3.15;74.59;94877.06;4177596;28;20384;-73
2023/01/12 06:19:26;;;;;;;;;;;;;;;3.23;74.76;94878.16;4176530;28;19921;-74
2023/01/12 06:21:27;;;;;;;;;;;;;;;3.30;74.41;94877.72;4159382;28;20450;-73
2023/01/12 06:23:29;;;;;;;;;;;;;;;3.31;74.34;94879.34;4171429;28;19959;-73
2023/01/12 06:25:36;;;;;;;;;;;;;;;3.18;74.12;94877.63;4172118;28;19996;-74
2023/01/12 06:27:37;;;;;;;;;;;;;;;2.90;75.86;94872.78;4175091;28;20329;-74
2023/01/12 06:29:40;;;;;;;;;;;;;;;3.00;75.99;94873.78;4166509;28;20375;-75
2023/01/12 06:31:42;;;;;;;;;;;;;;;3.05;75.56;94876.88;4169033;28;20207;-74
2023/01/12 06:33:44;;;;;;;;;;;;;;;3.03;75.71;94876.13;4169709;28;19935;-72
2023/01/12 06:35:49;;;;;;;;;;;;;;;2.92;76.21;94879.50;4176858;28;19921;-73
2023/01/12 06:37:54;;;;;;;;;;;;;;;2.97;76.04;94879.16;4167945;28;19929;-73
2023/01/12 06:39:55;;;;;;;;;;;;;;;2.98;76.30;94880.84;4160919;28;20369;-72
2023/01/12 06:44:18;;;;;;;;;;;;;;;2.96;76.53;94878.34;4171813;28;19979;-73
2023/01/12 06:46:20;;;;;;;;;;;;;;;3.01;76.52;94878.88;4148351;28;19926;-74
2023/01/12 06:48:24;;;;;;;;;;;;;;;3.05;76.23;94876.88;4175892;28;19920;-70
2023/01/12 06:50:26;;;;;;;;;;;;;;;3.05;75.72;94892.38;4159224;28;20563;-71
2023/01/12 06:52:29;;;;;;;;;;;;;;;2.89;76.72;94889.25;4167301;28;19997;-72
2023/01/12 06:54:30;;;;;;;;;;;;;;;2.80;76.71;94893.31;4173437;28;19970;-73
2023/01/12 06:56:32;;;;;;;;;;;;;;;2.87;76.93;94895.34;4176126;28;20161;-70
2023/01/12 06:58:33;;;;;;;;;;;;;;;2.85;76.70;94897.22;4171195;28;20411;-77
2023/01/12 07:00:35;;;;;;;;;;;;;;;2.89;77.01;94891.84;4171163;28;20243;-73
2023/01/12 07:02:37;;;;;;;;;;;;;;;2.96;76.30;94893.88;4176707;28;19924;-75
2023/01/12 07:04:39;;;;;;;;;;;;;;;3.07;76.36;94901.69;4173921;28;20391;-75
2023/01/12 07:06:40;;;;;;;;;;;;;;;3.08;76.34;94893.00;4165427;28;20051;-72
2023/01/12 07:08:42;;;;;;;;;;;;;;;3.00;76.37;94913.44;4161912;28;19925;-73
2023/01/12 07:10:44;;;;;;;;;;;;;;;2.87;76.80;94908.28;4162194;28;20273;-72
2023/01/12 07:12:45;;;;;;;;;;;;;;;2.91;76.94;94908.09;4158508;28;19920;-73
2023/01/12 07:14:47;;;;;;;;;;;;;;;3.00;76.94;94910.03;4176880;28;19924;-73
2023/01/12 07:16:49;;;;;;;;;;;;;;;3.03;76.77;94902.88;4171093;28;19982;-73
2023/01/12 07:18:50;;;;;;;;;;;;;;;3.03;76.82;94896.84;4168546;28;20232;-74
2023/01/12 07:20:52;;;;;;;;;;;;;;;2.98;77.45;94902.34;4161113;28;19925;-74
2023/01/12 07:22:54;;;;;;;;;;;;;;;2.94;76.85;94890.56;4172524;28;19940;-74
2023/01/12 07:24:56;;;;;;;;;;;;;;;3.06;77.05;94899.25;4162082;28;19944;-73
2023/01/12 07:26:58;;;;;;;;;;;;;;;3.10;76.39;94895.50;4159860;28;19920;-74
2023/01/12 07:28:59;;;;;;;;;;;;;;;3.13;76.66;94897.03;4163866;28;20229;-73
2023/01/12 07:31:01;;;;;;;;;;;;;;;3.10;76.60;94895.50;4171029;28;20410;-74
2023/01/12 07:33:07;;;;;;;;;;;;;;;3.13;76.49;94904.81;4177969;28;19920;-74
2023/01/12 07:35:08;;;;;;;;;;;;;;;3.20;76.49;94901.66;4176506;28;20030;-73
2023/01/12 07:37:10;;;;;;;;;;;;;;;3.23;75.98;94898.03;4175048;28;19925;-73
2023/01/12 07:39:12;;;;;;;;;;;;;;;3.28;75.65;94899.34;4169592;28;20348;-73
2023/01/12 07:43:34;;;;;;;;;;;;;;;3.29;75.49;94895.00;4161610;28;20336;-73
2023/01/12 07:45:36;;;;;;;;;;;;;;;3.29;75.48;94900.16;4166612;28;20358;-71
2023/01/12 07:47:37;;;;;;;;;;;;;;;3.41;74.97;94894.13;4168234;28;19921;-74
2023/01/12 07:49:39;;;;;;;;;;;;;;;3.54;74.95;94891.47;4172759;28;19925;-74
2023/01/12 07:51:40;;;;;;;;;;;;;;;3.62;74.74;94891.75;4156163;28;19925;-75
2023/01/12 07:53:42;;;;;;;;;;;;;;;3.63;74.17;94897.75;4143531;28;19925;-74
2023/01/12 07:55:44;;;;;;;;;;;;;;;3.69;74.13;94889.53;4161396;28;19925;-71
2023/01/12 07:57:53;;;;;;;;;;;;;;;3.68;74.08;94893.06;4162223;28;19921;-72
2023/01/12 07:59:55;;;;;;;;;;;;;;;3.68;74.76;94899.06;4164841;28;19924;-72
2023/01/12 08:01:57;;;;;;;;;;;;;;;3.79;74.00;94900.06;4179466;28;19925;-74
2023/01/12 08:03:58;;;;;;;;;;;;;;;3.84;73.99;94901.34;4169171;28;19925;-73
2023/01/12 08:06:00;;;;;;;;;;;;;;;3.98;73.30;94897.75;4174040;28;19999;-72
2023/01/12 08:08:02;;;;;;;;;;;;;;;4.06;73.27;94904.94;4164043;28;20416;-71
2023/01/12 08:10:04;;;;;;;;;;;;;;;3.98;72.67;94902.94;4171205;28;19943;-72
2023/01/12 08:12:06;;;;;;;;;;;;;;;4.01;73.27;94907.88;4168688;28;19960;-72
2023/01/12 08:14:07;;;;;;;;;;;;;;;4.04;72.38;94902.47;4177432;28;20011;-73
2023/01/12 08:16:15;;;;;;;;;;;;;;;3.85;73.30;94902.16;4146653;28;20135;-73
2023/01/12 08:18:19;;;;;;;;;;;;;;;3.59;74.97;94902.34;4146361;28;19921;-72
2023/01/12 08:20:22;;;;;;;;;;;;;;;3.71;74.48;94895.41;4146539;28;20375;-74
2023/01/12 08:22:25;;;;;;;;;;;;;;;3.64;74.59;94905.41;4163970;28;19956;-73
2023/01/12 08:24:31;;;;;;;;;;;;;;;3.61;74.63;94908.19;4146036;28;19921;-73
2023/01/12 08:26:34;;;;;;;;;;;;;;;3.72;74.31;94899.66;4174375;28;20252;-74
2023/01/12 08:28:37;;;;;;;;;;;;;;;3.85;74.18;94896.97;4167514;28;19928;-75
2023/01/12 08:30:38;;;;;;;;;;;;;;;3.95;73.32;94904.91;4151440;28;19921;-72
2023/01/12 08:32:40;;;;;;;;;;;;;;;3.37;75.07;94895.28;4175089;28;19921;-76
2023/01/12 08:34:42;;;;;;;;;;;;;;;3.57;75.48;94898.19;4167728;28;19952;-74
2023/01/12 08:36:44;;;;;;;;;;;;;;;3.75;74.92;94891.66;4169765;28;20294;-75
2023/01/12 08:38:45;;;;;;;;;;;;;;;3.39;74.28;94895.16;4152149;28;19921;-73
2023/01/12 08:43:07;;;;;;;;;;;;;;;2.92;76.31;94901.97;4168404;28;19921;-73
2023/01/12 08:45:08;;;;;;;;;;;;;;;2.93;76.48;94890.69;4171094;28;19924;-73
2023/01/12 08:47:17;;;;;;;;;;;;;;;2.91;76.37;94895.97;4169171;28;20113;-74
2023/01/12 08:49:20;;;;;;;;;;;;;;;3.06;76.20;94900.06;4167731;28;20023;-72
2023/01/12 08:51:24;;;;;;;;;;;;;;;3.12;75.40;94893.63;4167425;28;19975;-73
2023/01/12 08:53:26;;;;;;;;;;;;;;;3.25;75.64;94891.81;4158957;28;19933;-73
2023/01/12 08:55:27;;;;;;;;;;;;;;;3.26;75.85;94890.88;4156914;28;19921;-74
2023/01/12 08:57:29;;;;;;;;;;;;;;;3.41;75.28;94894.13;4174631;28;20348;-73
2023/01/12 08:59:30;;;;;;;;;;;;;;;3.25;75.41;94896.16;4170292;28;19921;-74
2023/01/12 09:01:32;;;;;;;;;;;;;;;3.02;75.91;94908.97;4169131;28;19921;-73
2023/01/12 09:03:34;;;;;;;;;;;;;;;3.09;75.99;94911.94;4166630;28;20391;-74
2023/01/12 09:05:36;;;;;;;;;;;;;;;2.88;76.73;94911.69;4166739;28;20041;-71
2023/01/12 09:07:38;;;;;;;;;;;;;;;2.94;76.91;94894.91;4169359;28;20371;-76
2023/01/12 09:09:40;;;;;;;;;;;;;;;3.15;76.17;94897.75;4177778;28;19986;-73
2023/01/12 09:11:42;;;;;;;;;;;;;;;3.33;75.55;94899.00;4178292;28;19921;-73
2023/01/12 09:13:43;;;;;;;;;;;;;;;3.33;74.79;94901.59;4177973;28;19964;-73
2023/01/12 09:15:45;;;;;;;;;;;;;;;3.21;75.42;94900.72;4170040;28;19936;-73
2023/01/12 09:18:06;;;;;;;;;;;;;;;3.18;75.69;94893.16;4176676;28;19999;-72
2023/01/12 09:20:08;;;;;;;;;;;;;;;3.39;75.21;94896.00;4155120;28;19961;-74
2023/01/12 09:22:11;;;;;;;;;;;;;;;3.16;75.27;94901.97;4170491;28;19925;-75
2023/01/12 09:24:13;;;;;;;;;;;;;;;3.19;75.52;94900.00;4177486;28;19920;-75
2023/01/12 09:26:16;;;;;;;;;;;;;;;3.38;75.38;94901.31;4147699;28;19952;-73
2023/01/12 09:28:17;;;;;;;;;;;;;;;3.30;75.30;94899.25;4160622;28;20032;-73
2023/01/12 09:30:19;;;;;;;;;;;;;;;3.47;75.00;94903.22;4167918;28;19936;-72
2023/01/12 09:32:20;;;;;;;;;;;;;;;3.59;75.18;94901.50;4167711;28;19994;-74
2023/01/12 09:34:29;;;;;;;;;;;;;;;3.78;74.50;94895.78;4168930;28;20004;-72
2023/01/12 09:36:32;;;;;;;;;;;;;;;3.95;72.64;94895.38;4176406;28;20261;-70
2023/01/12 09:38:34;;;;;;;;;;;;;;;3.64;73.00;94899.41;4159081;28;19925;-72
2023/01/12 09:40:35;;;;;;;;;;;;;;;3.77;73.93;94894.16;4158698;28;19925;-72
2023/01/12 09:47:46;;;;;;;;;;;;;;;3.33;74.11;94901.59;4102762;28;20115;-72
2023/01/12 09:50:01;;;;;;;;;;;;;;;3.59;73.55;94893.72;4151403;28;19933;-74
2023/01/12 09:52:14;;;;;;;;;;;;;;;3.69;72.50;94887.75;4149965;28;20534;-75
2023/01/12 09:54:16;;;;;;;;;;;;;;;3.80;72.27;94891.31;4175803;28;19921;-71
2023/01/12 09:56:38;;;;;;;;;;;;;;;3.55;72.44;94889.69;4160314;28;19921;-72
2023/01/12 09:58:40;;;;;;;;;;;;;;;3.65;71.94;94881.13;4149532;28;20363;-71
2023/01/12 10:00:41;;;;;;;;;;;;;;;3.73;71.87;94885.78;4176491;28;20360;-73
2023/01/12 10:03:13;;;;;;;;;;;;;;;3.25;72.91;94893.59;4176677;28;19921;-73
2023/01/12 10:05:21;;;;;;;;;;;;;;;2.96;74.02;94890.47;4163255;28;20362;-71
2023/01/12 10:07:31;;;;;;;;;;;;;;;2.82;74.13;94894.03;4176854;28;20228;-73
2023/01/12 10:09:36;;;;;;;;;;;;;;;2.84;74.71;94882.63;4175963;28;19947;-72
2023/01/12 10:11:58;;;;;;;;;;;;;;;3.08;74.85;94887.84;4160168;28;19984;-72
2023/01/12 10:14:05;;;;;;;;;;;;;;;2.77;75.12;94889.16;4160077;28;19968;-75
2023/01/12 10:16:08;;;;;;;;;;;;;;;2.99;75.15;94887.66;4158366;28;19936;-73
2023/01/12 10:18:12;;;;;;;;;;;;;;;3.20;74.63;94901.66;4155027;28;19931;-75
2023/01/12 10:20:30;;;;;;;;;;;;;;;3.32;74.08;94887.03;4159064;28;19921;-74
2023/01/12 10:22:40;;;;;;;;;;;;;;;3.22;74.06;94891.19;4176599;28;19931;-73
2023/01/12 10:24:42;;;;;;;;;;;;;;;3.13;73.85;94886.69;4159250;28;20528;-73
2023/01/12 10:26:43;;;;;;;;;;;;;;;3.28;73.25;94889.00;4176757;28;19927;-73
2023/01/12 10:28:45;;;;;;;;;;;;;;;3.23;73.75;94891.09;4177458;28;19925;-72
2023/01/12 10:30:47;;;;;;;;;;;;;;;3.47;73.07;94888.50;4176393;28;19921;-73
2023/01/12 10:32:48;;;;;;;;;;;;;;;3.43;72.99;94891.41;4175743;28;20324;-72
2023/01/12 10:34:50;;;;;;;;;;;;;;;3.56;72.89;94881.81;4173680;28;19992;-74
2023/01/12 10:36:53;;;;;;;;;;;;;;;3.43;73.10;94891.41;4176910;28;20339;-75
2023/01/12 10:39:02;;;;;;;;;;;;;;;3.64;71.90;94882.09;4175544;28;19921;-74
2023/01/12 10:41:13;;;;;;;;;;;;;;;3.82;71.76;94882.50;4169651;28;19928;-73
2023/01/12 10:43:30;;;;;;;;;;;;;;;3.86;71.07;94878.72;4161112;28;20001;-73
2023/01/12 10:45:32;;;;;;;;;;;;;;;3.94;71.16;94885.13;4161474;28;20028;-73
2023/01/12 10:47:34;;;;;;;;;;;;;;;4.00;71.02;94879.47;4161351;28;20458;-73
2023/01/12 10:49:37;;;;;;;;;;;;;;;4.02;70.15;94875.00;4160829;28;19928;-74
2023/01/12 10:51:46;;;;;;;;;;;;;;;4.10;70.64;94865.69;4146005;28;19921;-72
2023/01/12 10:53:58;;;;;;;;;;;;;;;4.08;70.42;94866.75;4175897;28;20019;-73
2023/01/12 10:56:02;;;;;;;;;;;;;;;4.17;70.01;94865.25;4162808;28;20000;-71
2023/01/12 10:58:04;;;;;;;;;;;;;;;4.22;69.73;94857.97;4159844;28;20259;-72
2023/01/12 11:00:14;;;;;;;;;;;;;;;4.35;70.34;94858.66;4172456;28;19925;-73
2023/01/12 11:02:16;;;;;;;;;;;;;;;4.48;69.18;94853.38;4148298;28;19925;-73
2023/01/12 11:04:20;;;;;;;;;;;;;;;4.48;69.33;94854.19;4162762;28;19940;-72
2023/01/12 11:06:25;;;;;;;;;;;;;;;4.64;69.10;94856.41;4154451;28;20424;-74
2023/01/12 11:08:28;;;;;;;;;;;;;;;4.66;68.56;94856.31;4159258;28;19925;-72
2023/01/12 11:10:35;;;;;;;;;;;;;;;4.59;68.78;94855.94;4142972;28;19922;-73
2023/01/12 11:12:37;;;;;;;;;;;;;;;4.60;68.47;94849.00;4143653;28;19924;-73
2023/01/12 11:14:39;;;;;;;;;;;;;;;4.56;69.08;94856.22;4148788;28;20357;-73
2023/01/12 11:16:43;;;;;;;;;;;;;;;4.62;68.21;94855.69;4170577;28;19929;-73
2023/01/12 11:19:03;;;;;;;;;;;;;;;4.51;68.86;94853.94;4155135;28;19943;-72
2023/01/12 11:21:06;;;;;;;;;;;;;;;4.33;69.50;94855.38;4172572;28;20323;-73
2023/01/12 11:23:10;;;;;;;;;;;;;;;4.26;69.88;94857.59;4148927;28;19928;-74
2023/01/12 11:25:13;;;;;;;;;;;;;;;4.37;69.73;94849.00;4160333;28;20340;-74
2023/01/12 11:27:16;;;;;;;;;;;;;;;4.34;69.66;94851.81;4143170;28;19921;-73
2023/01/12 11:29:19;;;;;;;;;;;;;;;4.42;69.08;94848.66;4150185;28;19921;-75
2023/01/12 11:31:24;;;;;;;;;;;;;;;4.49;69.23;94844.63;4171253;28;19974;-74
2023/01/12 11:33:39;;;;;;;;;;;;;;;4.41;68.79;94844.38;4166828;28;19991;-74
2023/01/12 11:35:45;;;;;;;;;;;;;;;4.50;69.03;94834.16;4158406;28;19979;-74